sensor_id;sensor_type;location;lat;lon;timestamp;pressure;altitude;pressure_sealevel;temperature
66403;BMP180;53212;52.112;5.144;2023-04-19T00:00:41;102774.00;;;9.30
66403;BMP180;53212;52.112;5.144;2023-04-19T00:03:08;102775.40;;;9.24
66403;BMP180;53212;52.112;5.144;2023-04-19T00:05:34;102777.20;;;9.28
66403;BMP180;53212;52.112;5.144;2023-04-19T00:07:59;102776.00;;;9.30
66403;BMP180;53212;52.112;5.144;2023-04-19T00:10:25;102774.00;;;9.30
66403;BMP180;53212;52.112;5.144;2023-04-19T00:12:51;102780.20;;;9.30
66403;BMP180;53212;52.112;5.144;2023-04-19T00:15:17;102773.80;;;9.30
66403;BMP180;53212;52.112;5.144;2023-04-19T00:17:42;102766.80;;;9.26
66403;BMP180;53212;52.112;5.144;2023-04-19T00:20:08;102772.80;;;9.20
66403;BMP180;53212;52.112;5.144;2023-04-19T00:22:34;102772.60;;;9.20
66403;BMP180;53212;52.112;5.144;2023-04-19T00:25:01;102767.00;;;9.20
66403;BMP180;53212;52.112;5.144;2023-04-19T00:27:26;102773.20;;;9.20
66403;BMP180;53212;52.112;5.144;2023-04-19T00:29:52;102770.40;;;9.20
66403;BMP180;53212;52.112;5.144;2023-04-19T00:32:17;102770.00;;;9.20
66403;BMP180;53212;52.112;5.144;2023-04-19T00:34:43;102770.00;;;9.16
66403;BMP180;53212;52.112;5.144;2023-04-19T00:37:08;102768.60;;;9.10
66403;BMP180;53212;52.112;5.144;2023-04-19T00:39:35;102765.40;;;9.10
66403;BMP180;53212;52.112;5.144;2023-04-19T00:42:00;102766.40;;;9.10
66403;BMP180;53212;52.112;5.144;2023-04-19T00:44:26;102764.80;;;9.10
66403;BMP180;53212;52.112;5.144;2023-04-19T00:46:52;102757.80;;;9.08
66403;BMP180;53212;52.112;5.144;2023-04-19T00:49:19;102752.60;;;9.00
66403;BMP180;53212;52.112;5.144;2023-04-19T00:51:45;102751.60;;;9.00
66403;BMP180;53212;52.112;5.144;2023-04-19T00:54:13;102748.40;;;9.00
66403;BMP180;53212;52.112;5.144;2023-04-19T00:56:39;102750.80;;;9.00
66403;BMP180;53212;52.112;5.144;2023-04-19T00:59:05;102748.80;;;8.94
66403;BMP180;53212;52.112;5.144;2023-04-19T01:01:32;102751.00;;;8.90
66403;BMP180;53212;52.112;5.144;2023-04-19T01:03:59;102752.40;;;8.90
66403;BMP180;53212;52.112;5.144;2023-04-19T01:06:27;102757.20;;;8.80
66403;BMP180;53212;52.112;5.144;2023-04-19T01:08:54;102760.60;;;8.80
66403;BMP180;53212;52.112;5.144;2023-04-19T01:11:21;102757.00;;;8.80
66403;BMP180;53212;52.112;5.144;2023-04-19T01:13:47;102756.80;;;8.78
66403;BMP180;53212;52.112;5.144;2023-04-19T01:16:12;102750.40;;;8.72
66403;BMP180;53212;52.112;5.144;2023-04-19T01:18:38;102746.20;;;8.70
66403;BMP180;53212;52.112;5.144;2023-04-19T01:21:06;102743.40;;;8.70
66403;BMP180;53212;52.112;5.144;2023-04-19T01:23:32;102744.00;;;8.64
66403;BMP180;53212;52.112;5.144;2023-04-19T01:25:57;102744.20;;;8.60
66403;BMP180;53212;52.112;5.144;2023-04-19T01:28:23;102746.80;;;8.60
66403;BMP180;53212;52.112;5.144;2023-04-19T01:30:48;102749.40;;;8.60
66403;BMP180;53212;52.112;5.144;2023-04-19T01:33:21;102744.60;;;8.60
66403;BMP180;53212;52.112;5.144;2023-04-19T01:35:47;102744.80;;;8.60
66403;BMP180;53212;52.112;5.144;2023-04-19T01:38:14;102745.60;;;8.60
66403;BMP180;53212;52.112;5.144;2023-04-19T01:40:39;102743.00;;;8.60
66403;BMP180;53212;52.112;5.144;2023-04-19T01:43:06;102740.40;;;8.60
66403;BMP180;53212;52.112;5.144;2023-04-19T01:45:32;102741.80;;;8.60
66403;BMP180;53212;52.112;5.144;2023-04-19T01:47:59;102748.20;;;8.60
66403;BMP180;53212;52.112;5.144;2023-04-19T01:50:26;102740.40;;;8.68
66403;BMP180;53212;52.112;5.144;2023-04-19T01:52:51;102741.40;;;8.60
66403;BMP180;53212;52.112;5.144;2023-04-19T01:55:17;102745.80;;;8.68
66403;BMP180;53212;52.112;5.144;2023-04-19T01:57:42;102743.20;;;8.70
66403;BMP180;53212;52.112;5.144;2023-04-19T02:00:09;102738.60;;;8.70
66403;BMP180;53212;52.112;5.144;2023-04-19T02:02:38;102740.20;;;8.70
66403;BMP180;53212;52.112;5.144;2023-04-19T02:05:05;102742.00;;;8.72
66403;BMP180;53212;52.112;5.144;2023-04-19T02:07:31;102751.80;;;8.80
66403;BMP180;53212;52.112;5.144;2023-04-19T02:09:56;102744.20;;;8.80
66403;BMP180;53212;52.112;5.144;2023-04-19T02:12:25;102737.80;;;8.86
66403;BMP180;53212;52.112;5.144;2023-04-19T02:14:53;102743.80;;;8.90
66403;BMP180;53212;52.112;5.144;2023-04-19T02:17:22;102744.60;;;8.90
66403;BMP180;53212;52.112;5.144;2023-04-19T02:19:48;102740.00;;;8.98
66403;BMP180;53212;52.112;5.144;2023-04-19T02:22:13;102742.00;;;9.00
66403;BMP180;53212;52.112;5.144;2023-04-19T02:24:39;102737.80;;;9.00
66403;BMP180;53212;52.112;5.144;2023-04-19T02:27:04;102737.40;;;9.04
66403;BMP180;53212;52.112;5.144;2023-04-19T02:29:30;102736.00;;;9.10
66403;BMP180;53212;52.112;5.144;2023-04-19T02:31:56;102734.80;;;9.10
66403;BMP180;53212;52.112;5.144;2023-04-19T02:34:21;102740.00;;;9.10
66403;BMP180;53212;52.112;5.144;2023-04-19T02:36:47;102739.60;;;9.10
66403;BMP180;53212;52.112;5.144;2023-04-19T02:39:12;102740.80;;;9.10
66403;BMP180;53212;52.112;5.144;2023-04-19T02:41:38;102740.40;;;9.12
66403;BMP180;53212;52.112;5.144;2023-04-19T02:44:03;102744.60;;;9.20
66403;BMP180;53212;52.112;5.144;2023-04-19T02:46:29;102745.60;;;9.20
66403;BMP180;53212;52.112;5.144;2023-04-19T02:48:54;102743.40;;;9.20
66403;BMP180;53212;52.112;5.144;2023-04-19T02:51:20;102748.20;;;9.20
66403;BMP180;53212;52.112;5.144;2023-04-19T02:53:45;102746.00;;;9.20
66403;BMP180;53212;52.112;5.144;2023-04-19T02:56:10;102748.40;;;9.22
66403;BMP180;53212;52.112;5.144;2023-04-19T02:58:36;102747.80;;;9.22
66403;BMP180;53212;52.112;5.144;2023-04-19T03:01:01;102752.00;;;9.26
66403;BMP180;53212;52.112;5.144;2023-04-19T03:03:27;102752.80;;;9.30
66403;BMP180;53212;52.112;5.144;2023-04-19T03:05:52;102749.00;;;9.30
66403;BMP180;53212;52.112;5.144;2023-04-19T03:08:18;102741.80;;;9.30
66403;BMP180;53212;52.112;5.144;2023-04-19T03:10:43;102745.80;;;9.30
66403;BMP180;53212;52.112;5.144;2023-04-19T03:13:09;102744.20;;;9.30
66403;BMP180;53212;52.112;5.144;2023-04-19T03:15:34;102744.00;;;9.40
66403;BMP180;53212;52.112;5.144;2023-04-19T03:18:00;102742.60;;;9.40
66403;BMP180;53212;52.112;5.144;2023-04-19T03:20:25;102739.60;;;9.40
66403;BMP180;53212;52.112;5.144;2023-04-19T03:22:51;102739.60;;;9.40
66403;BMP180;53212;52.112;5.144;2023-04-19T03:25:16;102740.80;;;9.40
66403;BMP180;53212;52.112;5.144;2023-04-19T03:27:42;102732.60;;;9.40
66403;BMP180;53212;52.112;5.144;2023-04-19T03:30:11;102733.80;;;9.40
66403;BMP180;53212;52.112;5.144;2023-04-19T03:32:37;102736.40;;;9.40
66403;BMP180;53212;52.112;5.144;2023-04-19T03:35:02;102741.20;;;9.40
66403;BMP180;53212;52.112;5.144;2023-04-19T03:37:28;102737.40;;;9.40
66403;BMP180;53212;52.112;5.144;2023-04-19T03:39:53;102735.60;;;9.40
66403;BMP180;53212;52.112;5.144;2023-04-19T03:42:19;102738.60;;;9.40
66403;BMP180;53212;52.112;5.144;2023-04-19T03:44:44;102735.40;;;9.40
66403;BMP180;53212;52.112;5.144;2023-04-19T03:47:10;102735.80;;;9.42
66403;BMP180;53212;52.112;5.144;2023-04-19T03:49:35;102733.40;;;9.48
66403;BMP180;53212;52.112;5.144;2023-04-19T03:52:01;102739.40;;;9.50
66403;BMP180;53212;52.112;5.144;2023-04-19T03:54:27;102735.20;;;9.50
66403;BMP180;53212;52.112;5.144;2023-04-19T03:56:52;102735.00;;;9.50
66403;BMP180;53212;52.112;5.144;2023-04-19T03:59:17;102740.00;;;9.50
66403;BMP180;53212;52.112;5.144;2023-04-19T04:01:43;102739.40;;;9.50
66403;BMP180;53212;52.112;5.144;2023-04-19T04:04:08;102740.40;;;9.50
66403;BMP180;53212;52.112;5.144;2023-04-19T04:06:34;102737.40;;;9.50
66403;BMP180;53212;52.112;5.144;2023-04-19T04:08:59;102738.80;;;9.50
66403;BMP180;53212;52.112;5.144;2023-04-19T04:11:25;102732.00;;;9.50
66403;BMP180;53212;52.112;5.144;2023-04-19T04:13:51;102731.60;;;9.50
66403;BMP180;53212;52.112;5.144;2023-04-19T04:16:16;102731.80;;;9.50
66403;BMP180;53212;52.112;5.144;2023-04-19T04:18:42;102735.40;;;9.50
66403;BMP180;53212;52.112;5.144;2023-04-19T04:21:07;102734.60;;;9.40
66403;BMP180;53212;52.112;5.144;2023-04-19T04:23:33;102730.00;;;9.40
66403;BMP180;53212;52.112;5.144;2023-04-19T04:25:59;102733.00;;;9.30
66403;BMP180;53212;52.112;5.144;2023-04-19T04:28:28;102731.80;;;9.30
66403;BMP180;53212;52.112;5.144;2023-04-19T04:30:57;102731.80;;;9.20
66403;BMP180;53212;52.112;5.144;2023-04-19T04:33:25;102728.20;;;9.20
66403;BMP180;53212;52.112;5.144;2023-04-19T04:35:52;102736.40;;;9.20
66403;BMP180;53212;52.112;5.144;2023-04-19T04:38:19;102733.20;;;9.10
66403;BMP180;53212;52.112;5.144;2023-04-19T04:40:54;102736.00;;;9.10
66403;BMP180;53212;52.112;5.144;2023-04-19T04:43:22;102732.20;;;9.10
66403;BMP180;53212;52.112;5.144;2023-04-19T04:45:48;102734.60;;;9.00
66403;BMP180;53212;52.112;5.144;2023-04-19T04:48:14;102735.60;;;9.00
66403;BMP180;53212;52.112;5.144;2023-04-19T04:50:40;102733.00;;;9.00
66403;BMP180;53212;52.112;5.144;2023-04-19T04:53:06;102737.40;;;9.00
66403;BMP180;53212;52.112;5.144;2023-04-19T04:55:31;102735.00;;;9.00
66403;BMP180;53212;52.112;5.144;2023-04-19T04:57:57;102735.00;;;8.90
66403;BMP180;53212;52.112;5.144;2023-04-19T05:00:22;102737.20;;;8.90
66403;BMP180;53212;52.112;5.144;2023-04-19T05:02:48;102734.20;;;8.90
66403;BMP180;53212;52.112;5.144;2023-04-19T05:05:13;102737.80;;;8.90
66403;BMP180;53212;52.112;5.144;2023-04-19T05:07:39;102734.20;;;8.90
66403;BMP180;53212;52.112;5.144;2023-04-19T05:10:06;102736.20;;;8.90
66403;BMP180;53212;52.112;5.144;2023-04-19T05:12:32;102739.00;;;8.90
66403;BMP180;53212;52.112;5.144;2023-04-19T05:14:58;102740.00;;;8.90
66403;BMP180;53212;52.112;5.144;2023-04-19T05:17:23;102743.00;;;8.90
66403;BMP180;53212;52.112;5.144;2023-04-19T05:19:49;102741.40;;;8.90
66403;BMP180;53212;52.112;5.144;2023-04-19T05:22:15;102744.60;;;8.90
66403;BMP180;53212;52.112;5.144;2023-04-19T05:24:40;102748.80;;;9.00
66403;BMP180;53212;52.112;5.144;2023-04-19T05:27:06;102747.80;;;9.00
66403;BMP180;53212;52.112;5.144;2023-04-19T05:29:31;102752.00;;;9.00
66403;BMP180;53212;52.112;5.144;2023-04-19T05:31:57;102753.80;;;9.00
66403;BMP180;53212;52.112;5.144;2023-04-19T05:34:23;102760.60;;;9.10
66403;BMP180;53212;52.112;5.144;2023-04-19T05:36:49;102759.40;;;9.10
66403;BMP180;53212;52.112;5.144;2023-04-19T05:39:14;102759.00;;;9.18
66403;BMP180;53212;52.112;5.144;2023-04-19T05:41:41;102757.20;;;9.20
66403;BMP180;53212;52.112;5.144;2023-04-19T05:44:07;102754.20;;;9.20
66403;BMP180;53212;52.112;5.144;2023-04-19T05:46:32;102757.40;;;9.30
66403;BMP180;53212;52.112;5.144;2023-04-19T05:48:58;102757.40;;;9.32
66403;BMP180;53212;52.112;5.144;2023-04-19T05:51:23;102762.80;;;9.40
66403;BMP180;53212;52.112;5.144;2023-04-19T05:53:49;102758.40;;;9.58
66403;BMP180;53212;52.112;5.144;2023-04-19T05:56:14;102754.60;;;9.70
66403;BMP180;53212;52.112;5.144;2023-04-19T05:58:40;102757.00;;;9.90
66403;BMP180;53212;52.112;5.144;2023-04-19T06:01:05;102755.20;;;10.10
66403;BMP180;53212;52.112;5.144;2023-04-19T06:03:31;102760.60;;;10.30
66403;BMP180;53212;52.112;5.144;2023-04-19T06:05:58;102756.40;;;10.40
66403;BMP180;53212;52.112;5.144;2023-04-19T06:08:23;102751.00;;;10.50
66403;BMP180;53212;52.112;5.144;2023-04-19T06:10:49;102758.00;;;10.68
66403;BMP180;53212;52.112;5.144;2023-04-19T06:13:15;102753.80;;;10.88
66403;BMP180;53212;52.112;5.144;2023-04-19T06:15:40;102757.20;;;11.08
66403;BMP180;53212;52.112;5.144;2023-04-19T06:18:06;102757.20;;;11.24
66403;BMP180;53212;52.112;5.144;2023-04-19T06:20:38;102757.20;;;11.68
66403;BMP180;53212;52.112;5.144;2023-04-19T06:23:05;102759.80;;;12.02
66403;BMP180;53212;52.112;5.144;2023-04-19T06:25:30;102754.80;;;12.26
66403;BMP180;53212;52.112;5.144;2023-04-19T06:27:56;102752.60;;;12.42
66403;BMP180;53212;52.112;5.144;2023-04-19T06:30:21;102753.00;;;12.50
66403;BMP180;53212;52.112;5.144;2023-04-19T06:32:47;102756.20;;;12.50
66403;BMP180;53212;52.112;5.144;2023-04-19T06:35:13;102756.00;;;12.70
66403;BMP180;53212;52.112;5.144;2023-04-19T06:37:39;102753.80;;;13.00
66403;BMP180;53212;52.112;5.144;2023-04-19T06:40:06;102756.60;;;12.92
66403;BMP180;53212;52.112;5.144;2023-04-19T06:42:36;102754.60;;;12.78
66403;BMP180;53212;52.112;5.144;2023-04-19T06:45:02;102751.00;;;12.36
66403;BMP180;53212;52.112;5.144;2023-04-19T06:47:28;102749.60;;;12.08
66403;BMP180;53212;52.112;5.144;2023-04-19T06:49:55;102751.20;;;11.86
66403;BMP180;53212;52.112;5.144;2023-04-19T06:52:21;102747.40;;;11.70
66403;BMP180;53212;52.112;5.144;2023-04-19T06:54:50;102748.80;;;11.54
66403;BMP180;53212;52.112;5.144;2023-04-19T06:57:17;102749.80;;;11.44
66403;BMP180;53212;52.112;5.144;2023-04-19T06:59:43;102751.60;;;11.40
66403;BMP180;53212;52.112;5.144;2023-04-19T07:02:08;102748.60;;;11.36
66403;BMP180;53212;52.112;5.144;2023-04-19T07:04:34;102746.20;;;11.30
66403;BMP180;53212;52.112;5.144;2023-04-19T07:07:00;102747.60;;;11.22
66403;BMP180;53212;52.112;5.144;2023-04-19T07:09:26;102742.40;;;11.20
66403;BMP180;53212;52.112;5.144;2023-04-19T07:11:51;102748.60;;;11.20
66403;BMP180;53212;52.112;5.144;2023-04-19T07:14:17;102746.00;;;11.30
66403;BMP180;53212;52.112;5.144;2023-04-19T07:16:46;102740.20;;;11.30
66403;BMP180;53212;52.112;5.144;2023-04-19T07:19:12;102743.80;;;11.30
66403;BMP180;53212;52.112;5.144;2023-04-19T07:21:38;102742.20;;;11.30
66403;BMP180;53212;52.112;5.144;2023-04-19T07:24:07;102743.40;;;11.38
66403;BMP180;53212;52.112;5.144;2023-04-19T07:26:33;102742.20;;;11.40
66403;BMP180;53212;52.112;5.144;2023-04-19T07:28:59;102743.60;;;11.46
66403;BMP180;53212;52.112;5.144;2023-04-19T07:31:26;102741.80;;;11.50
66403;BMP180;53212;52.112;5.144;2023-04-19T07:33:52;102742.60;;;11.52
66403;BMP180;53212;52.112;5.144;2023-04-19T07:36:18;102735.80;;;11.60
66403;BMP180;53212;52.112;5.144;2023-04-19T07:38:43;102742.20;;;11.60
66403;BMP180;53212;52.112;5.144;2023-04-19T07:41:09;102740.80;;;11.60
66403;BMP180;53212;52.112;5.144;2023-04-19T07:43:35;102743.40;;;11.60
66403;BMP180;53212;52.112;5.144;2023-04-19T07:46:01;102745.40;;;11.60
66403;BMP180;53212;52.112;5.144;2023-04-19T07:48:27;102747.40;;;11.60
66403;BMP180;53212;52.112;5.144;2023-04-19T07:50:52;102752.40;;;11.60
66403;BMP180;53212;52.112;5.144;2023-04-19T07:53:18;102752.60;;;11.50
66403;BMP180;53212;52.112;5.144;2023-04-19T07:55:44;102745.20;;;11.56
66403;BMP180;53212;52.112;5.144;2023-04-19T07:58:10;102742.60;;;11.54
66403;BMP180;53212;52.112;5.144;2023-04-19T08:00:35;102743.00;;;11.60
66403;BMP180;53212;52.112;5.144;2023-04-19T08:03:02;102741.20;;;11.60
66403;BMP180;53212;52.112;5.144;2023-04-19T08:05:28;102748.00;;;11.60
66403;BMP180;53212;52.112;5.144;2023-04-19T08:07:54;102744.20;;;11.62
66403;BMP180;53212;52.112;5.144;2023-04-19T08:10:21;102745.80;;;11.60
66403;BMP180;53212;52.112;5.144;2023-04-19T08:12:46;102752.20;;;11.60
66403;BMP180;53212;52.112;5.144;2023-04-19T08:15:12;102747.40;;;11.60
66403;BMP180;53212;52.112;5.144;2023-04-19T08:17:40;102749.80;;;11.62
66403;BMP180;53212;52.112;5.144;2023-04-19T08:20:09;102752.80;;;11.70
66403;BMP180;53212;52.112;5.144;2023-04-19T08:22:35;102753.20;;;11.70
66403;BMP180;53212;52.112;5.144;2023-04-19T08:25:01;102755.20;;;11.70
66403;BMP180;53212;52.112;5.144;2023-04-19T08:27:26;102754.60;;;11.70
66403;BMP180;53212;52.112;5.144;2023-04-19T08:29:52;102755.80;;;11.80
66403;BMP180;53212;52.112;5.144;2023-04-19T08:32:17;102745.60;;;11.80
66403;BMP180;53212;52.112;5.144;2023-04-19T08:34:43;102748.20;;;11.90
66403;BMP180;53212;52.112;5.144;2023-04-19T08:37:08;102748.80;;;11.90
66403;BMP180;53212;52.112;5.144;2023-04-19T08:39:33;102748.60;;;11.90
66403;BMP180;53212;52.112;5.144;2023-04-19T08:42:07;102746.60;;;11.90
66403;BMP180;53212;52.112;5.144;2023-04-19T08:44:35;102750.40;;;12.00
66403;BMP180;53212;52.112;5.144;2023-04-19T08:47:04;102751.40;;;12.00
66403;BMP180;53212;52.112;5.144;2023-04-19T08:49:34;102747.60;;;12.04
66403;BMP180;53212;52.112;5.144;2023-04-19T08:52:01;102749.60;;;12.10
66403;BMP180;53212;52.112;5.144;2023-04-19T08:54:28;102745.60;;;12.10
66403;BMP180;53212;52.112;5.144;2023-04-19T08:56:58;102744.40;;;12.10
66403;BMP180;53212;52.112;5.144;2023-04-19T08:59:24;102746.00;;;12.20
66403;BMP180;53212;52.112;5.144;2023-04-19T09:01:50;102747.40;;;12.20
66403;BMP180;53212;52.112;5.144;2023-04-19T09:04:15;102744.40;;;12.30
66403;BMP180;53212;52.112;5.144;2023-04-19T09:06:41;102735.20;;;12.30
66403;BMP180;53212;52.112;5.144;2023-04-19T09:09:22;102742.00;;;12.30
66403;BMP180;53212;52.112;5.144;2023-04-19T09:11:49;102740.40;;;12.32
66403;BMP180;53212;52.112;5.144;2023-04-19T09:14:16;102739.20;;;12.30
66403;BMP180;53212;52.112;5.144;2023-04-19T09:16:43;102743.20;;;12.40
66403;BMP180;53212;52.112;5.144;2023-04-19T09:19:09;102737.80;;;12.46
66403;BMP180;53212;52.112;5.144;2023-04-19T09:21:37;102737.40;;;12.50
66403;BMP180;53212;52.112;5.144;2023-04-19T09:24:04;102741.80;;;12.50
66403;BMP180;53212;52.112;5.144;2023-04-19T09:26:30;102734.60;;;12.50
66403;BMP180;53212;52.112;5.144;2023-04-19T09:29:02;102737.00;;;12.50
66403;BMP180;53212;52.112;5.144;2023-04-19T09:31:30;102734.00;;;12.60
66403;BMP180;53212;52.112;5.144;2023-04-19T09:33:57;102733.80;;;12.60
66403;BMP180;53212;52.112;5.144;2023-04-19T09:36:30;102731.80;;;12.70
66403;BMP180;53212;52.112;5.144;2023-04-19T09:38:56;102733.40;;;12.70
66403;BMP180;53212;52.112;5.144;2023-04-19T09:41:23;102730.40;;;12.70
66403;BMP180;53212;52.112;5.144;2023-04-19T09:43:49;102718.20;;;12.70
66403;BMP180;53212;52.112;5.144;2023-04-19T09:46:35;102733.20;;;12.80
66403;BMP180;53212;52.112;5.144;2023-04-19T09:51:46;102720.40;;;12.90
66403;BMP180;53212;52.112;5.144;2023-04-19T09:54:14;102724.40;;;12.86
66403;BMP180;53212;52.112;5.144;2023-04-19T09:56:40;102723.80;;;12.80
66403;BMP180;53212;52.112;5.144;2023-04-19T09:59:07;102731.20;;;12.80
66403;BMP180;53212;52.112;5.144;2023-04-19T10:04:09;102740.60;;;12.90
66403;BMP180;53212;52.112;5.144;2023-04-19T10:06:35;102738.20;;;12.96
66403;BMP180;53212;52.112;5.144;2023-04-19T10:09:02;102740.00;;;12.94
66403;BMP180;53212;52.112;5.144;2023-04-19T10:11:36;102741.40;;;13.00
66403;BMP180;53212;52.112;5.144;2023-04-19T10:14:09;102738.20;;;12.94
66403;BMP180;53212;52.112;5.144;2023-04-19T10:16:37;102738.00;;;13.00
66403;BMP180;53212;52.112;5.144;2023-04-19T10:19:07;102730.40;;;13.00
66403;BMP180;53212;52.112;5.144;2023-04-19T10:21:32;102730.60;;;12.92
66403;BMP180;53212;52.112;5.144;2023-04-19T10:23:58;102721.80;;;13.00
66403;BMP180;53212;52.112;5.144;2023-04-19T10:26:24;102721.40;;;13.10
66403;BMP180;53212;52.112;5.144;2023-04-19T10:28:50;102715.40;;;13.20
66403;BMP180;53212;52.112;5.144;2023-04-19T10:31:19;102722.60;;;13.34
66403;BMP180;53212;52.112;5.144;2023-04-19T10:33:48;102719.40;;;13.40
66403;BMP180;53212;52.112;5.144;2023-04-19T10:36:14;102713.20;;;13.40
66403;BMP180;53212;52.112;5.144;2023-04-19T10:38:46;102707.00;;;13.46
66403;BMP180;53212;52.112;5.144;2023-04-19T10:41:20;102680.00;;;13.50
66403;BMP180;53212;52.112;5.144;2023-04-19T10:48:51;102698.00;;;13.70
66403;BMP180;53212;52.112;5.144;2023-04-19T10:51:36;102694.80;;;13.80
66403;BMP180;53212;52.112;5.144;2023-04-19T10:54:12;102703.00;;;13.80
66403;BMP180;53212;52.112;5.144;2023-04-19T10:57:05;102697.60;;;13.80
66403;BMP180;53212;52.112;5.144;2023-04-19T10:59:36;102694.60;;;13.80
66403;BMP180;53212;52.112;5.144;2023-04-19T11:04:58;102694.20;;;14.00
66403;BMP180;53212;52.112;5.144;2023-04-19T11:07:24;102691.40;;;14.00
66403;BMP180;53212;52.112;5.144;2023-04-19T11:09:50;102682.80;;;14.02
66403;BMP180;53212;52.112;5.144;2023-04-19T11:12:19;102679.40;;;14.08
66403;BMP180;53212;52.112;5.144;2023-04-19T11:14:55;102682.20;;;14.10
66403;BMP180;53212;52.112;5.144;2023-04-19T11:17:30;102685.60;;;14.20
66403;BMP180;53212;52.112;5.144;2023-04-19T11:20:07;102686.40;;;14.20
66403;BMP180;53212;52.112;5.144;2023-04-19T11:22:43;102681.20;;;14.20
66403;BMP180;53212;52.112;5.144;2023-04-19T11:27:35;102680.00;;;14.24
66403;BMP180;53212;52.112;5.144;2023-04-19T11:30:27;102676.20;;;14.30
66403;BMP180;53212;52.112;5.144;2023-04-19T11:32:55;102669.80;;;14.22
66403;BMP180;53212;52.112;5.144;2023-04-19T11:35:27;102669.20;;;14.30
66403;BMP180;53212;52.112;5.144;2023-04-19T11:37:54;102657.00;;;14.38
66403;BMP180;53212;52.112;5.144;2023-04-19T11:40:22;102660.40;;;14.40
66403;BMP180;53212;52.112;5.144;2023-04-19T11:43:00;102652.80;;;14.40
66403;BMP180;53212;52.112;5.144;2023-04-19T11:45:35;102650.20;;;14.40
66403;BMP180;53212;52.112;5.144;2023-04-19T11:48:04;102633.80;;;14.44
66403;BMP180;53212;52.112;5.144;2023-04-19T11:50:36;102639.60;;;14.50
66403;BMP180;53212;52.112;5.144;2023-04-19T11:53:22;102631.20;;;14.60
66403;BMP180;53212;52.112;5.144;2023-04-19T11:55:49;102623.60;;;14.70
66403;BMP180;53212;52.112;5.144;2023-04-19T11:58:38;102628.40;;;14.80
66403;BMP180;53212;52.112;5.144;2023-04-19T12:01:06;102625.80;;;14.90
66403;BMP180;53212;52.112;5.144;2023-04-19T12:03:33;102614.80;;;15.00
66403;BMP180;53212;52.112;5.144;2023-04-19T12:06:01;102616.00;;;15.04
66403;BMP180;53212;52.112;5.144;2023-04-19T12:08:37;102615.60;;;15.10
66403;BMP180;53212;52.112;5.144;2023-04-19T12:11:04;102611.40;;;15.10
66403;BMP180;53212;52.112;5.144;2023-04-19T12:13:31;102607.40;;;15.10
66403;BMP180;53212;52.112;5.144;2023-04-19T12:15:57;102606.80;;;15.20
66403;BMP180;53212;52.112;5.144;2023-04-19T12:18:23;102605.20;;;15.28
66403;BMP180;53212;52.112;5.144;2023-04-19T12:20:51;102609.00;;;15.40
66403;BMP180;53212;52.112;5.144;2023-04-19T12:23:18;102606.40;;;15.48
66403;BMP180;53212;52.112;5.144;2023-04-19T12:25:47;102608.20;;;15.50
66403;BMP180;53212;52.112;5.144;2023-04-19T12:28:14;102614.20;;;15.50
66403;BMP180;53212;52.112;5.144;2023-04-19T12:30:40;102615.60;;;15.50
66403;BMP180;53212;52.112;5.144;2023-04-19T12:33:07;102608.20;;;15.50
66403;BMP180;53212;52.112;5.144;2023-04-19T12:35:33;102604.00;;;15.60
66403;BMP180;53212;52.112;5.144;2023-04-19T12:38:00;102607.80;;;15.60
66403;BMP180;53212;52.112;5.144;2023-04-19T12:40:26;102602.20;;;15.60
66403;BMP180;53212;52.112;5.144;2023-04-19T12:42:52;102601.60;;;15.66
66403;BMP180;53212;52.112;5.144;2023-04-19T12:45:19;102605.40;;;15.60
66403;BMP180;53212;52.112;5.144;2023-04-19T12:47:46;102593.00;;;15.70
66403;BMP180;53212;52.112;5.144;2023-04-19T12:50:14;102601.40;;;15.70
66403;BMP180;53212;52.112;5.144;2023-04-19T12:52:41;102597.20;;;15.60
66403;BMP180;53212;52.112;5.144;2023-04-19T12:55:07;102598.80;;;15.50
66403;BMP180;53212;52.112;5.144;2023-04-19T12:57:33;102578.00;;;15.50
66403;BMP180;53212;52.112;5.144;2023-04-19T12:59:58;102581.60;;;15.60
66403;BMP180;53212;52.112;5.144;2023-04-19T13:02:24;102582.80;;;15.60
66403;BMP180;53212;52.112;5.144;2023-04-19T13:04:49;102576.60;;;15.70
66403;BMP180;53212;52.112;5.144;2023-04-19T13:07:15;102568.80;;;15.80
66403;BMP180;53212;52.112;5.144;2023-04-19T13:09:40;102575.80;;;15.86
66403;BMP180;53212;52.112;5.144;2023-04-19T13:12:06;102567.60;;;15.90
66403;BMP180;53212;52.112;5.144;2023-04-19T13:14:31;102559.20;;;15.80
66403;BMP180;53212;52.112;5.144;2023-04-19T13:16:57;102556.60;;;15.80
66403;BMP180;53212;52.112;5.144;2023-04-19T13:19:23;102549.00;;;15.90
66403;BMP180;53212;52.112;5.144;2023-04-19T13:21:48;102555.00;;;15.94
66403;BMP180;53212;52.112;5.144;2023-04-19T13:24:13;102558.60;;;15.98
66403;BMP180;53212;52.112;5.144;2023-04-19T13:26:39;102547.80;;;15.98
66403;BMP180;53212;52.112;5.144;2023-04-19T13:29:05;102542.20;;;16.00
66403;BMP180;53212;52.112;5.144;2023-04-19T13:31:33;102543.40;;;16.10
66403;BMP180;53212;52.112;5.144;2023-04-19T13:33:59;102534.40;;;16.14
66403;BMP180;53212;52.112;5.144;2023-04-19T13:36:25;102536.60;;;16.20
66403;BMP180;53212;52.112;5.144;2023-04-19T13:38:52;102538.00;;;16.22
66403;BMP180;53212;52.112;5.144;2023-04-19T13:41:19;102533.40;;;16.20
66403;BMP180;53212;52.112;5.144;2023-04-19T13:43:45;102538.40;;;16.20
66403;BMP180;53212;52.112;5.144;2023-04-19T13:46:11;102521.20;;;16.20
66403;BMP180;53212;52.112;5.144;2023-04-19T13:48:36;102527.60;;;16.20
66403;BMP180;53212;52.112;5.144;2023-04-19T13:51:02;102531.20;;;16.20
66403;BMP180;53212;52.112;5.144;2023-04-19T13:53:27;102526.20;;;16.20
66403;BMP180;53212;52.112;5.144;2023-04-19T13:55:54;102527.20;;;16.20
66403;BMP180;53212;52.112;5.144;2023-04-19T13:58:20;102526.40;;;16.12
66403;BMP180;53212;52.112;5.144;2023-04-19T14:00:45;102528.80;;;16.10
66403;BMP180;53212;52.112;5.144;2023-04-19T14:03:13;102516.00;;;16.14
66403;BMP180;53212;52.112;5.144;2023-04-19T14:05:38;102518.80;;;16.20
66403;BMP180;53212;52.112;5.144;2023-04-19T14:08:04;102521.80;;;16.20
66403;BMP180;53212;52.112;5.144;2023-04-19T14:10:30;102518.80;;;16.14
66403;BMP180;53212;52.112;5.144;2023-04-19T14:12:55;102524.00;;;16.18
66403;BMP180;53212;52.112;5.144;2023-04-19T14:15:21;102515.80;;;16.20